createdAt,value
2023-05-05T04:44:36.190Z,98253.02
2023-05-05T04:47:06.590Z,98252.60
2023-05-05T04:49:36.675Z,98256.83
2023-05-05T04:52:06.027Z,98260.95
2023-05-05T04:54:38.656Z,98263.88
2023-05-05T04:57:08.112Z,98264.73
2023-05-05T04:59:37.432Z,98263.55
2023-05-05T05:02:07.052Z,98248.66
2023-05-05T05:04:36.549Z,98264.30
2023-05-05T05:07:06.298Z,98264.63
2023-05-05T05:09:35.309Z,98264.96
2023-05-05T05:12:04.080Z,98267.77
2023-05-05T05:14:37.373Z,98268.19
2023-05-05T05:17:06.824Z,98265.15
2023-05-05T05:19:36.159Z,98266.66
2023-05-05T05:22:05.248Z,98268.50
2023-05-05T05:24:36.869Z,98269.73
2023-05-05T05:27:10.158Z,98276.23
2023-05-05T05:29:41.168Z,98276.79
2023-05-05T05:32:09.615Z,98279.45
2023-05-05T05:34:38.267Z,98282.83
2023-05-05T05:37:08.772Z,98279.84
2023-05-05T05:40:26.970Z,98277.70
2023-05-05T05:42:54.999Z,98277.86
2023-05-05T05:45:25.056Z,98275.23
2023-05-05T05:47:53.728Z,98284.21
2023-05-05T05:50:21.833Z,98284.67
2023-05-05T05:52:49.984Z,98284.80
2023-05-05T05:55:18.473Z,98288.80
2023-05-05T05:57:47.370Z,98286.55
2023-05-05T06:01:09.606Z,98288.77
2023-05-05T06:03:38.232Z,98292.10
2023-05-05T07:00:55.587Z,98298.11
2023-05-05T07:03:28.018Z,98299.37
2023-05-05T07:05:58.153Z,98301.84
2023-05-05T07:09:21.452Z,98302.27
2023-05-05T07:11:50.127Z,98298.91
2023-05-05T07:14:18.322Z,98301.58
2023-05-05T07:16:46.806Z,98301.01
2023-05-05T07:19:16.089Z,98303.15
2023-05-05T07:21:45.021Z,98301.85
2023-05-05T07:24:13.552Z,98298.04
2023-05-05T07:26:41.941Z,98298.23
2023-05-05T07:29:11.238Z,98295.09
2023-05-05T07:31:40.805Z,98297.89
2023-05-05T07:34:09.130Z,98299.80
